sensor_id;sensor_type;location;lat;lon;timestamp;pressure;altitude;pressure_sealevel;temperature;humidity
21357;BME280;10836;53.068;18.234;2022-12-18T00:01:32;102615.22;;;-5.07;100.00
21357;BME280;10836;53.068;18.234;2022-12-18T00:04:02;102616.19;;;-5.08;100.00
21357;BME280;10836;53.068;18.234;2022-12-18T00:06:29;102606.97;;;-5.04;100.00
21357;BME280;10836;53.068;18.234;2022-12-18T00:08:58;102613.78;;;-5.11;100.00
21357;BME280;10836;53.068;18.234;2022-12-18T00:11:28;102624.53;;;-5.02;100.00
21357;BME280;10836;53.068;18.234;2022-12-18T00:13:57;102621.16;;;-5.04;100.00
21357;BME280;10836;53.068;18.234;2022-12-18T00:16:26;102630.47;;;-5.09;100.00
21357;BME280;10836;53.068;18.234;2022-12-18T00:18:55;102640.41;;;-5.11;100.00
21357;BME280;10836;53.068;18.234;2022-12-18T00:21:23;102642.94;;;-5.10;100.00
21357;BME280;10836;53.068;18.234;2022-12-18T00:23:50;102633.03;;;-5.08;100.00
21357;BME280;10836;53.068;18.234;2022-12-18T00:26:24;102642.59;;;-5.16;100.00
21357;BME280;10836;53.068;18.234;2022-12-18T00:28:59;102638.00;;;-5.14;100.00
21357;BME280;10836;53.068;18.234;2022-12-18T00:31:26;102637.03;;;-5.13;100.00
21357;BME280;10836;53.068;18.234;2022-12-18T00:33:55;102649.88;;;-5.18;100.00
21357;BME280;10836;53.068;18.234;2022-12-18T00:36:28;102665.16;;;-5.20;100.00
21357;BME280;10836;53.068;18.234;2022-12-18T00:38:56;102654.94;;;-5.15;100.00
21357;BME280;10836;53.068;18.234;2022-12-18T00:41:24;102661.72;;;-5.11;100.00
21357;BME280;10836;53.068;18.234;2022-12-18T00:44:13;102658.34;;;-5.13;100.00
21357;BME280;10836;53.068;18.234;2022-12-18T00:46:42;102652.38;;;-5.06;100.00
21357;BME280;10836;53.068;18.234;2022-12-18T00:49:10;102656.28;;;-5.10;100.00
21357;BME280;10836;53.068;18.234;2022-12-18T00:51:36;102665.34;;;-5.12;100.00
21357;BME280;10836;53.068;18.234;2022-12-18T00:54:04;102660.06;;;-5.23;100.00
21357;BME280;10836;53.068;18.234;2022-12-18T00:56:31;102675.53;;;-5.17;100.00
21357;BME280;10836;53.068;18.234;2022-12-18T00:58:58;102666.06;;;-5.10;100.00
21357;BME280;10836;53.068;18.234;2022-12-18T01:01:25;102676.97;;;-5.02;100.00
21357;BME280;10836;53.068;18.234;2022-12-18T01:03:52;102683.28;;;-5.03;100.00
21357;BME280;10836;53.068;18.234;2022-12-18T01:06:19;102684.94;;;-4.91;100.00
21357;BME280;10836;53.068;18.234;2022-12-18T01:08:46;102677.47;;;-5.08;100.00
21357;BME280;10836;53.068;18.234;2022-12-18T01:11:16;102675.28;;;-5.03;100.00
21357;BME280;10836;53.068;18.234;2022-12-18T01:13:44;102688.81;;;-4.95;100.00
21357;BME280;10836;53.068;18.234;2022-12-18T01:16:12;102683.75;;;-4.98;100.00
21357;BME280;10836;53.068;18.234;2022-12-18T01:18:39;102679.75;;;-5.04;100.00
21357;BME280;10836;53.068;18.234;2022-12-18T01:21:13;102689.31;;;-5.01;100.00
21357;BME280;10836;53.068;18.234;2022-12-18T01:23:40;102699.97;;;-5.01;100.00
21357;BME280;10836;53.068;18.234;2022-12-18T01:26:10;102697.78;;;-4.96;100.00
21357;BME280;10836;53.068;18.234;2022-12-18T01:28:39;102688.81;;;-4.95;100.00
21357;BME280;10836;53.068;18.234;2022-12-18T01:31:21;102704.22;;;-4.98;100.00
21357;BME280;10836;53.068;18.234;2022-12-18T01:33:49;102700.69;;;-4.99;100.00
21357;BME280;10836;53.068;18.234;2022-12-18T01:36:20;102708.69;;;-4.99;100.00
21357;BME280;10836;53.068;18.234;2022-12-18T01:38:48;102696.59;;;-5.03;100.00
21357;BME280;10836;53.068;18.234;2022-12-18T01:41:17;102706.88;;;-5.10;100.00
21357;BME280;10836;53.068;18.234;2022-12-18T01:43:51;102710.63;;;-5.01;100.00
21357;BME280;10836;53.068;18.234;2022-12-18T01:46:20;102717.16;;;-4.94;100.00
21357;BME280;10836;53.068;18.234;2022-12-18T01:48:50;102702.53;;;-4.99;100.00
21357;BME280;10836;53.068;18.234;2022-12-18T01:51:20;102704.81;;;-4.95;100.00
21357;BME280;10836;53.068;18.234;2022-12-18T01:53:48;102702.88;;;-5.04;100.00
21357;BME280;10836;53.068;18.234;2022-12-18T01:56:17;102717.41;;;-4.97;100.00
21357;BME280;10836;53.068;18.234;2022-12-18T01:58:58;102717.41;;;-4.97;100.00
21357;BME280;10836;53.068;18.234;2022-12-18T02:01:28;102719.22;;;-4.86;100.00
21357;BME280;10836;53.068;18.234;2022-12-18T02:04:21;102730.97;;;-4.89;100.00
21357;BME280;10836;53.068;18.234;2022-12-18T02:06:54;102728.69;;;-4.93;100.00
21357;BME280;10836;53.068;18.234;2022-12-18T02:09:49;102739.94;;;-4.90;100.00
21357;BME280;10836;53.068;18.234;2022-12-18T02:12:27;102741.38;;;-4.86;100.00
21357;BME280;10836;53.068;18.234;2022-12-18T02:15:06;102736.53;;;-4.92;100.00
21357;BME280;10836;53.068;18.234;2022-12-18T02:17:49;102743.44;;;-4.89;100.00
21357;BME280;10836;53.068;18.234;2022-12-18T02:20:43;102742.47;;;-4.77;100.00
21357;BME280;10836;53.068;18.234;2022-12-18T02:28:53;102742.53;;;-4.68;100.00
21357;BME280;10836;53.068;18.234;2022-12-18T02:31:24;102742.66;;;-4.69;100.00
21357;BME280;10836;53.068;18.234;2022-12-18T02:33:56;102740.41;;;-4.85;100.00
21357;BME280;10836;53.068;18.234;2022-12-18T02:36:27;102742.59;;;-4.79;100.00
21357;BME280;10836;53.068;18.234;2022-12-18T02:38:56;102750.06;;;-4.73;100.00
21357;BME280;10836;53.068;18.234;2022-12-18T02:41:26;102759.91;;;-4.84;100.00
21357;BME280;10836;53.068;18.234;2022-12-18T02:43:56;102758.09;;;-4.84;100.00
21357;BME280;10836;53.068;18.234;2022-12-18T02:46:37;102758.31;;;-4.76;100.00
21357;BME280;10836;53.068;18.234;2022-12-18T02:58:07;102762.69;;;-4.86;100.00
21357;BME280;10836;53.068;18.234;2022-12-18T03:00:48;102768.16;;;-4.87;100.00
21357;BME280;10836;53.068;18.234;2022-12-18T03:03:27;102768.28;;;-4.89;100.00
21357;BME280;10836;53.068;18.234;2022-12-18T03:06:02;102768.03;;;-4.86;100.00
21357;BME280;10836;53.068;18.234;2022-12-18T03:08:36;102776.50;;;-4.81;100.00
21357;BME280;10836;53.068;18.234;2022-12-18T03:11:13;102776.28;;;-4.78;100.00
21357;BME280;10836;53.068;18.234;2022-12-18T03:13:51;102784.03;;;-4.86;100.00
21357;BME280;10836;53.068;18.234;2022-12-18T03:16:27;102771.19;;;-4.81;100.00
21357;BME280;10836;53.068;18.234;2022-12-18T03:18:59;102777.59;;;-4.83;100.00
21357;BME280;10836;53.068;18.234;2022-12-18T03:21:33;102787.66;;;-4.87;100.00
21357;BME280;10836;53.068;18.234;2022-12-18T03:24:06;102784.63;;;-4.82;100.00
21357;BME280;10836;53.068;18.234;2022-12-18T03:26:37;102788.75;;;-4.89;100.00
21357;BME280;10836;53.068;18.234;2022-12-18T03:29:13;102789.34;;;-4.97;100.00
21357;BME280;10836;53.068;18.234;2022-12-18T03:31:46;102792.75;;;-4.84;100.00
21357;BME280;10836;53.068;18.234;2022-12-18T03:34:21;102807.28;;;-4.88;100.00
21357;BME280;10836;53.068;18.234;2022-12-18T03:36:49;102808.94;;;-4.76;100.00
21357;BME280;10836;53.068;18.234;2022-12-18T03:39:17;102799.78;;;-4.83;100.00
21357;BME280;10836;53.068;18.234;2022-12-18T03:44:53;102812.00;;;-4.91;100.00
21357;BME280;10836;53.068;18.234;2022-12-18T03:47:28;102810.66;;;-4.97;100.00
21357;BME280;10836;53.068;18.234;2022-12-18T03:55:24;102826.91;;;-4.89;100.00
21357;BME280;10836;53.068;18.234;2022-12-18T03:57:58;102816.69;;;-4.73;100.00
21357;BME280;10836;53.068;18.234;2022-12-18T04:00:34;102822.53;;;-4.79;100.00
21357;BME280;10836;53.068;18.234;2022-12-18T04:03:07;102827.63;;;-4.87;100.00
21357;BME280;10836;53.068;18.234;2022-12-18T04:05:43;102827.25;;;-4.71;100.00
21357;BME280;10836;53.068;18.234;2022-12-18T04:08:12;102834.91;;;-4.78;100.00
21357;BME280;10836;53.068;18.234;2022-12-18T04:10:43;102823.84;;;-4.73;100.00
21357;BME280;10836;53.068;18.234;2022-12-18T04:13:10;102831.75;;;-4.83;100.00
21357;BME280;10836;53.068;18.234;2022-12-18T04:15:38;102830.06;;;-4.84;100.00
21357;BME280;10836;53.068;18.234;2022-12-18T04:18:09;102826.41;;;-4.83;100.00
21357;BME280;10836;53.068;18.234;2022-12-18T04:20:40;102828.34;;;-4.85;100.00
21357;BME280;10836;53.068;18.234;2022-12-18T04:23:07;102837.69;;;-4.79;100.00
21357;BME280;10836;53.068;18.234;2022-12-18T04:25:36;102830.50;;;-4.68;100.00
21357;BME280;10836;53.068;18.234;2022-12-18T04:28:07;102838.25;;;-4.76;100.00
21357;BME280;10836;53.068;18.234;2022-12-18T04:30:35;102844.44;;;-4.75;100.00
21357;BME280;10836;53.068;18.234;2022-12-18T04:33:02;102841.66;;;-4.62;100.00
21357;BME280;10836;53.068;18.234;2022-12-18T04:35:31;102842.88;;;-4.66;100.00
21357;BME280;10836;53.068;18.234;2022-12-18T04:37:58;102852.31;;;-4.74;100.00
21357;BME280;10836;53.068;18.234;2022-12-18T04:40:26;102855.47;;;-4.69;100.00
21357;BME280;10836;53.068;18.234;2022-12-18T04:42:53;102848.44;;;-4.70;100.00
21357;BME280;10836;53.068;18.234;2022-12-18T04:45:20;102858.16;;;-4.80;100.00
21357;BME280;10836;53.068;18.234;2022-12-18T04:47:47;102855.47;;;-4.91;100.00
21357;BME280;10836;53.068;18.234;2022-12-18T04:50:14;102857.19;;;-4.90;100.00
21357;BME280;10836;53.068;18.234;2022-12-18T04:52:41;102858.88;;;-4.78;100.00
21357;BME280;10836;53.068;18.234;2022-12-18T04:55:08;102863.38;;;-4.78;100.00
21357;BME280;10836;53.068;18.234;2022-12-18T04:57:35;102866.59;;;-4.75;100.00
21357;BME280;10836;53.068;18.234;2022-12-18T05:00:02;102864.06;;;-4.76;100.00
21357;BME280;10836;53.068;18.234;2022-12-18T05:02:29;102860.09;;;-4.82;100.00
21357;BME280;10836;53.068;18.234;2022-12-18T05:04:57;102862.41;;;-4.77;100.00
21357;BME280;10836;53.068;18.234;2022-12-18T05:07:23;102871.69;;;-4.72;100.00
21357;BME280;10836;53.068;18.234;2022-12-18T05:09:50;102875.09;;;-4.70;100.00
21357;BME280;10836;53.068;18.234;2022-12-18T05:12:17;102871.59;;;-4.70;100.00
21357;BME280;10836;53.068;18.234;2022-12-18T05:14:44;102869.66;;;-4.79;100.00
21357;BME280;10836;53.068;18.234;2022-12-18T05:17:11;102876.06;;;-4.93;100.00
21357;BME280;10836;53.068;18.234;2022-12-18T05:19:38;102874.13;;;-4.91;100.00
21357;BME280;10836;53.068;18.234;2022-12-18T05:22:08;102878.25;;;-4.87;100.00
21357;BME280;10836;53.068;18.234;2022-12-18T05:24:35;102888.53;;;-4.93;100.00
21357;BME280;10836;53.068;18.234;2022-12-18T05:27:02;102880.66;;;-4.95;100.00
21357;BME280;10836;53.068;18.234;2022-12-18T05:29:29;102897.13;;;-5.01;100.00
21357;BME280;10836;53.068;18.234;2022-12-18T05:31:56;102909.75;;;-4.92;100.00
21357;BME280;10836;53.068;18.234;2022-12-18T05:34:23;102915.56;;;-4.87;100.00
21357;BME280;10836;53.068;18.234;2022-12-18T05:36:50;102919.44;;;-4.91;100.00
21357;BME280;10836;53.068;18.234;2022-12-18T05:39:17;102924.00;;;-5.04;100.00
21357;BME280;10836;53.068;18.234;2022-12-18T05:41:44;102931.38;;;-5.08;100.00
21357;BME280;10836;53.068;18.234;2022-12-18T05:44:11;102932.34;;;-5.09;100.00
21357;BME280;10836;53.068;18.234;2022-12-18T05:46:38;102933.41;;;-5.11;100.00
21357;BME280;10836;53.068;18.234;2022-12-18T05:49:05;102940.06;;;-5.17;100.00
21357;BME280;10836;53.068;18.234;2022-12-18T05:51:31;102940.31;;;-5.20;100.00
21357;BME280;10836;53.068;18.234;2022-12-18T05:53:58;102937.28;;;-5.15;100.00
21357;BME280;10836;53.068;18.234;2022-12-18T05:56:25;102943.44;;;-5.26;100.00
21357;BME280;10836;53.068;18.234;2022-12-18T05:58:53;102945.94;;;-5.36;100.00
21357;BME280;10836;53.068;18.234;2022-12-18T06:01:24;102947.41;;;-5.31;100.00
21357;BME280;10836;53.068;18.234;2022-12-18T06:03:51;102945.09;;;-5.36;100.00
21357;BME280;10836;53.068;18.234;2022-12-18T06:06:24;102956.38;;;-5.32;100.00
21357;BME280;10836;53.068;18.234;2022-12-18T06:08:53;102954.72;;;-5.22;100.00
21357;BME280;10836;53.068;18.234;2022-12-18T06:11:22;102964.13;;;-5.29;100.00
21357;BME280;10836;53.068;18.234;2022-12-18T06:13:51;102958.47;;;-5.25;100.00
21357;BME280;10836;53.068;18.234;2022-12-18T06:16:24;102957.56;;;-5.37;100.00
21357;BME280;10836;53.068;18.234;2022-12-18T06:18:51;102965.09;;;-5.30;100.00
21357;BME280;10836;53.068;18.234;2022-12-18T06:21:18;102965.31;;;-5.33;100.00
21357;BME280;10836;53.068;18.234;2022-12-18T06:23:45;102972.56;;;-5.36;100.00
21357;BME280;10836;53.068;18.234;2022-12-18T06:26:13;102971.53;;;-5.46;100.00
21357;BME280;10836;53.068;18.234;2022-12-18T06:28:40;102986.03;;;-5.50;100.00
21357;BME280;10836;53.068;18.234;2022-12-18T06:31:08;102981.97;;;-5.43;100.00
21357;BME280;10836;53.068;18.234;2022-12-18T06:33:36;102984.34;;;-5.51;100.00
21357;BME280;10836;53.068;18.234;2022-12-18T06:38:32;102993.22;;;-5.63;100.00
21357;BME280;10836;53.068;18.234;2022-12-18T06:40:59;102992.88;;;-5.58;100.00
21357;BME280;10836;53.068;18.234;2022-12-18T06:43:27;103002.84;;;-5.73;100.00
21357;BME280;10836;53.068;18.234;2022-12-18T06:46:00;103013.63;;;-5.75;100.00
21357;BME280;10836;53.068;18.234;2022-12-18T06:48:27;103014.09;;;-5.93;100.00
21357;BME280;10836;53.068;18.234;2022-12-18T06:50:54;103015.53;;;-5.77;100.00
21357;BME280;10836;53.068;18.234;2022-12-18T06:53:21;103014.53;;;-5.99;100.00
21357;BME280;10836;53.068;18.234;2022-12-18T06:55:49;103021.56;;;-5.98;100.00
21357;BME280;10836;53.068;18.234;2022-12-18T06:58:17;103025.19;;;-5.99;100.00
21357;BME280;10836;53.068;18.234;2022-12-18T07:00:43;103027.09;;;-6.01;100.00
21357;BME280;10836;53.068;18.234;2022-12-18T07:03:11;103029.25;;;-6.07;100.00
21357;BME280;10836;53.068;18.234;2022-12-18T07:05:41;103032.13;;;-6.10;100.00
21357;BME280;10836;53.068;18.234;2022-12-18T07:08:08;103043.50;;;-6.08;100.00
21357;BME280;10836;53.068;18.234;2022-12-18T07:10:45;103047.13;;;-6.09;100.00
21357;BME280;10836;53.068;18.234;2022-12-18T07:13:16;103046.47;;;-5.99;100.00
21357;BME280;10836;53.068;18.234;2022-12-18T07:15:43;103053.47;;;-5.98;100.00
21357;BME280;10836;53.068;18.234;2022-12-18T07:18:11;103058.06;;;-6.00;100.00
21357;BME280;10836;53.068;18.234;2022-12-18T07:20:39;103064.03;;;-6.10;100.00
21357;BME280;10836;53.068;18.234;2022-12-18T07:23:06;103063.94;;;-6.21;100.00
21357;BME280;10836;53.068;18.234;2022-12-18T07:25:36;103068.50;;;-6.23;100.00
21357;BME280;10836;53.068;18.234;2022-12-18T07:28:04;103070.63;;;-6.28;100.00
21357;BME280;10836;53.068;18.234;2022-12-18T07:30:31;103069.25;;;-6.33;100.00
21357;BME280;10836;53.068;18.234;2022-12-18T07:32:58;103071.78;;;-6.32;100.00
21357;BME280;10836;53.068;18.234;2022-12-18T07:35:25;103077.53;;;-6.38;100.00
21357;BME280;10836;53.068;18.234;2022-12-18T07:37:52;103079.22;;;-6.37;100.00
21357;BME280;10836;53.068;18.234;2022-12-18T07:40:18;103079.22;;;-6.37;100.00
21357;BME280;10836;53.068;18.234;2022-12-18T07:42:45;103079.22;;;-6.37;100.00
21357;BME280;10836;53.068;18.234;2022-12-18T07:45:12;103084.00;;;-6.42;100.00
21357;BME280;10836;53.068;18.234;2022-12-18T07:47:39;103083.81;;;-6.39;100.00
21357;BME280;10836;53.068;18.234;2022-12-18T07:50:08;103095.06;;;-6.48;100.00
21357;BME280;10836;53.068;18.234;2022-12-18T07:52:35;103099.00;;;-6.41;100.00
21357;BME280;10836;53.068;18.234;2022-12-18T07:55:02;103104.97;;;-6.50;100.00
21357;BME280;10836;53.068;18.234;2022-12-18T07:57:29;103109.44;;;-6.38;100.00
21357;BME280;10836;53.068;18.234;2022-12-18T08:00:16;103112.44;;;-6.30;100.00
21357;BME280;10836;53.068;18.234;2022-12-18T08:02:43;103108.81;;;-6.29;100.00
21357;BME280;10836;53.068;18.234;2022-12-18T08:05:10;103111.13;;;-6.37;100.00
21357;BME280;10836;53.068;18.234;2022-12-18T08:07:37;103105.81;;;-6.50;100.00
21357;BME280;10836;53.068;18.234;2022-12-18T08:10:05;103106.22;;;-6.43;100.00
21357;BME280;10836;53.068;18.234;2022-12-18T08:12:32;103108.34;;;-6.48;100.00
21357;BME280;10836;53.068;18.234;2022-12-18T08:14:59;103115.38;;;-6.47;100.00
21357;BME280;10836;53.068;18.234;2022-12-18T08:17:26;103120.69;;;-6.47;100.00
21357;BME280;10836;53.068;18.234;2022-12-18T08:19:52;103137.31;;;-6.31;100.00
21357;BME280;10836;53.068;18.234;2022-12-18T08:22:20;103139.47;;;-6.11;100.00
21357;BME280;10836;53.068;18.234;2022-12-18T08:24:46;103140.97;;;-6.07;100.00
21357;BME280;10836;53.068;18.234;2022-12-18T08:27:14;103143.63;;;-6.07;100.00
21357;BME280;10836;53.068;18.234;2022-12-18T08:29:56;103140.31;;;-6.23;100.00
21357;BME280;10836;53.068;18.234;2022-12-18T08:32:25;103147.97;;;-6.06;100.00
21357;BME280;10836;53.068;18.234;2022-12-18T08:34:52;103148.16;;;-5.83;100.00
21357;BME280;10836;53.068;18.234;2022-12-18T08:37:19;103156.94;;;-6.07;100.00
21357;BME280;10836;53.068;18.234;2022-12-18T08:39:46;103159.88;;;-6.24;100.00
21357;BME280;10836;53.068;18.234;2022-12-18T08:42:14;103165.31;;;-6.13;100.00
21357;BME280;10836;53.068;18.234;2022-12-18T08:44:59;103157.09;;;-5.84;100.00
21357;BME280;10836;53.068;18.234;2022-12-18T08:47:27;103170.09;;;-5.92;100.00
21357;BME280;10836;53.068;18.234;2022-12-18T08:49:53;103169.47;;;-6.09;100.00
21357;BME280;10836;53.068;18.234;2022-12-18T08:52:20;103167.63;;;-6.33;100.00
21357;BME280;10836;53.068;18.234;2022-12-18T08:54:47;103165.00;;;-6.21;100.00
21357;BME280;10836;53.068;18.234;2022-12-18T08:57:14;103183.94;;;-6.00;100.00
21357;BME280;10836;53.068;18.234;2022-12-18T08:59:41;103186.28;;;-5.95;100.00
21357;BME280;10836;53.068;18.234;2022-12-18T09:02:11;103179.88;;;-5.80;100.00
21357;BME280;10836;53.068;18.234;2022-12-18T09:04:39;103173.91;;;-6.22;100.00
21357;BME280;10836;53.068;18.234;2022-12-18T09:07:07;103169.44;;;-6.21;100.00
21357;BME280;10836;53.068;18.234;2022-12-18T09:09:33;103163.50;;;-6.25;100.00
21357;BME280;10836;53.068;18.234;2022-12-18T09:12:00;103163.09;;;-6.46;100.00
21357;BME280;10836;53.068;18.234;2022-12-18T09:14:27;103167.41;;;-6.30;100.00
21357;BME280;10836;53.068;18.234;2022-12-18T09:16:54;103168.19;;;-5.90;100.00
21357;BME280;10836;53.068;18.234;2022-12-18T09:19:21;103175.66;;;-6.08;100.00
21357;BME280;10836;53.068;18.234;2022-12-18T09:21:48;103176.06;;;-6.01;100.00
21357;BME280;10836;53.068;18.234;2022-12-18T09:24:16;103166.91;;;-5.72;100.00
21357;BME280;10836;53.068;18.234;2022-12-18T09:26:43;103168.56;;;-5.58;100.00
21357;BME280;10836;53.068;18.234;2022-12-18T09:29:15;103151.06;;;-5.00;100.00
21357;BME280;10836;53.068;18.234;2022-12-18T09:31:45;103146.22;;;-5.19;100.00
21357;BME280;10836;53.068;18.234;2022-12-18T09:34:12;103141.25;;;-5.24;100.00
21357;BME280;10836;53.068;18.234;2022-12-18T09:36:39;103131.69;;;-5.26;100.00
21357;BME280;10836;53.068;18.234;2022-12-18T09:39:06;103136.59;;;-5.33;100.00
21357;BME280;10836;53.068;18.234;2022-12-18T09:41:48;103139.66;;;-5.26;100.00
21357;BME280;10836;53.068;18.234;2022-12-18T09:44:43;103140.44;;;-4.77;100.00
21357;BME280;10836;53.068;18.234;2022-12-18T09:47:21;103137.53;;;-3.92;100.00
21357;BME280;10836;53.068;18.234;2022-12-18T09:49:52;103146.53;;;-3.93;100.00
21357;BME280;10836;53.068;18.234;2022-12-18T09:52:37;103134.72;;;-4.02;100.00
21357;BME280;10836;53.068;18.234;2022-12-18T09:55:28;103145.91;;;-4.43;100.00
21357;BME280;10836;53.068;18.234;2022-12-18T10:00:36;103151.47;;;-4.94;100.00
21357;BME280;10836;53.068;18.234;2022-12-18T10:03:09;103143.50;;;-5.30;100.00
21357;BME280;10836;53.068;18.234;2022-12-18T10:14:24;103140.84;;;-5.30;100.00
21357;BME280;10836;53.068;18.234;2022-12-18T10:17:03;103142.78;;;-5.45;100.00
21357;BME280;10836;53.068;18.234;2022-12-18T10:19:40;103151.31;;;-5.53;100.00
21357;BME280;10836;53.068;18.234;2022-12-18T10:27:26;103155.56;;;-5.38;100.00
21357;BME280;10836;53.068;18.234;2022-12-18T10:29:54;103159.84;;;-5.60;100.00
21357;BME280;10836;53.068;18.234;2022-12-18T10:32:23;103161.44;;;-5.58;100.00
21357;BME280;10836;53.068;18.234;2022-12-18T10:34:54;103171.47;;;-5.74;100.00
21357;BME280;10836;53.068;18.234;2022-12-18T10:37:28;103164.03;;;-5.82;100.00
21357;BME280;10836;53.068;18.234;2022-12-18T10:40:13;103165.22;;;-6.11;100.00
21357;BME280;10836;53.068;18.234;2022-12-18T10:43:10;103174.44;;;-6.29;100.00
21357;BME280;10836;53.068;18.234;2022-12-18T10:45:38;103190.19;;;-6.26;100.00
21357;BME280;10836;53.068;18.234;2022-12-18T10:48:18;103179.19;;;-6.34;100.00
21357;BME280;10836;53.068;18.234;2022-12-18T10:50:48;103167.53;;;-6.19;100.00
21357;BME280;10836;53.068;18.234;2022-12-18T10:53:37;103176.59;;;-6.49;100.00
21357;BME280;10836;53.068;18.234;2022-12-18T10:56:06;103181.31;;;-6.40;100.00
21357;BME280;10836;53.068;18.234;2022-12-18T10:58:35;103185.38;;;-6.34;100.00
21357;BME280;10836;53.068;18.234;2022-12-18T11:01:17;103182.41;;;-6.29;100.00
21357;BME280;10836;53.068;18.234;2022-12-18T11:06:19;103189.31;;;-6.27;100.00
21357;BME280;10836;53.068;18.234;2022-12-18T11:11:40;103202.47;;;-6.38;100.00
21357;BME280;10836;53.068;18.234;2022-12-18T11:14:21;103206.84;;;-6.37;100.00
21357;BME280;10836;53.068;18.234;2022-12-18T11:16:50;103208.75;;;-6.39;100.00
21357;BME280;10836;53.068;18.234;2022-12-18T11:19:39;103203.84;;;-6.45;100.00
21357;BME280;10836;53.068;18.234;2022-12-18T11:24:56;103201.06;;;-6.44;100.00
21357;BME280;10836;53.068;18.234;2022-12-18T11:28:05;103210.00;;;-6.45;100.00
21357;BME280;10836;53.068;18.234;2022-12-18T11:30:35;103206.91;;;-6.12;100.00
21357;BME280;10836;53.068;18.234;2022-12-18T11:33:16;103202.44;;;-5.98;100.00
21357;BME280;10836;53.068;18.234;2022-12-18T11:35:51;103207.31;;;-6.18;100.00
21357;BME280;10836;53.068;18.234;2022-12-18T11:38:26;103195.84;;;-6.18;100.00
21357;BME280;10836;53.068;18.234;2022-12-18T11:41:00;103194.13;;;-6.19;100.00
21357;BME280;10836;53.068;18.234;2022-12-18T11:43:48;103198.38;;;-6.04;100.00
21357;BME280;10836;53.068;18.234;2022-12-18T11:46:51;103199.47;;;-6.07;100.00
21357;BME280;10836;53.068;18.234;2022-12-18T11:49:27;103185.19;;;-6.06;100.00
21357;BME280;10836;53.068;18.234;2022-12-18T11:52:19;103192.47;;;-6.08;100.00
21357;BME280;10836;53.068;18.234;2022-12-18T11:54:45;103186.91;;;-6.17;100.00
21357;BME280;10836;53.068;18.234;2022-12-18T11:59:55;103192.88;;;-6.14;100.00
21357;BME280;10836;53.068;18.234;2022-12-18T12:05:22;103189.88;;;-6.22;100.00
21357;BME280;10836;53.068;18.234;2022-12-18T12:13:35;103195.84;;;-6.18;100.00
21357;BME280;10836;53.068;18.234;2022-12-18T12:18:56;103195.53;;;-6.53;100.00
21357;BME280;10836;53.068;18.234;2022-12-18T12:21:42;103202.63;;;-6.81;100.00
21357;BME280;10836;53.068;18.234;2022-12-18T12:24:58;103215.13;;;-6.95;100.00
21357;BME280;10836;53.068;18.234;2022-12-18T12:35:07;103217.47;;;-6.91;100.00
21357;BME280;10836;53.068;18.234;2022-12-18T12:37:54;103220.28;;;-6.80;100.00
21357;BME280;10836;53.068;18.234;2022-12-18T12:40:27;103232.22;;;-6.73;100.00
21357;BME280;10836;53.068;18.234;2022-12-18T12:46:17;103243.94;;;-6.89;100.00
21357;BME280;10836;53.068;18.234;2022-12-18T12:48:50;103244.03;;;-6.91;100.00
21357;BME280;10836;53.068;18.234;2022-12-18T12:51:21;103249.47;;;-7.07;100.00
21357;BME280;10836;53.068;18.234;2022-12-18T12:53:50;103261.72;;;-7.04;100.00
21357;BME280;10836;53.068;18.234;2022-12-18T12:56:21;103260.94;;;-7.06;100.00
21357;BME280;10836;53.068;18.234;2022-12-18T12:58:54;103257.91;;;-7.00;100.00
21357;BME280;10836;53.068;18.234;2022-12-18T13:07:33;103268.31;;;-6.83;100.00
21357;BME280;10836;53.068;18.234;2022-12-18T13:13:00;103265.34;;;-6.78;100.00
21357;BME280;10836;53.068;18.234;2022-12-18T13:15:41;103269.22;;;-6.69;100.00
21357;BME280;10836;53.068;18.234;2022-12-18T13:18:22;103269.44;;;-6.73;100.00
21357;BME280;10836;53.068;18.234;2022-12-18T13:21:01;103271.00;;;-6.97;100.00
21357;BME280;10836;53.068;18.234;2022-12-18T13:23:35;103275.47;;;-6.97;100.00
21357;BME280;10836;53.068;18.234;2022-12-18T13:31:01;103271.94;;;-7.12;100.00
21357;BME280;10836;53.068;18.234;2022-12-18T13:36:03;103266.44;;;-7.09;100.00
21357;BME280;10836;53.068;18.234;2022-12-18T13:38:37;103274.78;;;-7.01;100.00
21357;BME280;10836;53.068;18.234;2022-12-18T13:43:54;103258.19;;;-7.05;100.00
21357;BME280;10836;53.068;18.234;2022-12-18T13:46:47;103258.09;;;-7.03;100.00
21357;BME280;10836;53.068;18.234;2022-12-18T13:49:23;103263.56;;;-6.92;100.00
21357;BME280;10836;53.068;18.234;2022-12-18T13:51:53;103272.28;;;-6.90;100.00
21357;BME280;10836;53.068;18.234;2022-12-18T13:54:35;103274.69;;;-6.99;100.00
21357;BME280;10836;53.068;18.234;2022-12-18T13:57:04;103272.91;;;-6.99;100.00
21357;BME280;10836;53.068;18.234;2022-12-18T14:02:07;103263.22;;;-7.14;100.00
21357;BME280;10836;53.068;18.234;2022-12-18T14:04:37;103271.88;;;-7.39;100.00
21357;BME280;10836;53.068;18.234;2022-12-18T14:07:07;103268.53;;;-7.43;100.00
21357;BME280;10836;53.068;18.234;2022-12-18T14:09:44;103271.09;;;-7.41;100.00
21357;BME280;10836;53.068;18.234;2022-12-18T14:12:19;103268.19;;;-7.36;100.00
21357;BME280;10836;53.068;18.234;2022-12-18T14:15:23;103268.16;;;-7.51;100.00
21357;BME280;10836;53.068;18.234;2022-12-18T14:20:39;103278.19;;;-7.56;100.00
21357;BME280;10836;53.068;18.234;2022-12-18T14:25:58;103271.97;;;-7.41;100.00
21357;BME280;10836;53.068;18.234;2022-12-18T14:28:31;103278.31;;;-7.43;100.00
21357;BME280;10836;53.068;18.234;2022-12-18T14:30:58;103278.88;;;-7.52;100.00
21357;BME280;10836;53.068;18.234;2022-12-18T14:33:27;103277.81;;;-7.50;100.00
21357;BME280;10836;53.068;18.234;2022-12-18T14:36:00;103276.22;;;-7.52;100.00